Time;durP1;ratioP1;P1;durP2;ratioP2;P2;SDS_P1;SDS_P2;PMS_P1;PMS_P2;Temp;Humidity;BMP_temperature;BMP_pressure;BME280_temperature;BME280_humidity;BME280_pressure;Samples;Min_cycle;Max_cycle;Signal;HPM_P1;HPM_P2
2023/02/05 00:00:38;;;;;;;68.93;18.50;;;;;;;7.04;95.09;103215.22;5093004;28;20101;-55
2023/02/05 00:03:05;;;;;;;67.90;18.80;;;;;;;6.99;96.55;103223.38;5092900;28;20137;-54
2023/02/05 00:05:32;;;;;;;77.45;19.77;;;;;;;6.99;96.11;103212.81;5093690;28;20072;-54
2023/02/05 00:07:59;;;;;;;64.53;17.08;;;;;;;6.98;95.77;103213.72;5093550;28;20094;-54
2023/02/05 00:10:25;;;;;;;69.53;19.73;;;;;;;6.98;95.59;103200.53;5093494;28;20072;-54
2023/02/05 00:12:52;;;;;;;76.68;20.17;;;;;;;6.95;96.09;103199.81;5091906;28;20048;-54
2023/02/05 00:15:19;;;;;;;68.68;19.35;;;;;;;6.97;96.93;103190.91;5093467;28;20520;-56
2023/02/05 00:17:45;;;;;;;74.47;21.75;;;;;;;6.96;97.69;103186.56;5093416;28;20048;-54
2023/02/05 00:20:13;;;;;;;65.60;19.58;;;;;;;6.95;98.30;103187.50;5093275;28;20040;-54
2023/02/05 00:22:39;;;;;;;76.35;18.73;;;;;;;6.98;97.79;103182.06;5093264;28;20520;-54
2023/02/05 00:25:06;;;;;;;75.82;19.13;;;;;;;6.93;98.47;103178.78;5093099;28;20123;-54
2023/02/05 00:27:33;;;;;;;68.90;19.92;;;;;;;6.76;98.82;103184.81;5108944;28;20058;-53
2023/02/05 00:29:59;;;;;;;75.90;20.58;;;;;;;6.72;99.21;103181.47;5093148;28;20044;-54
2023/02/05 00:32:26;;;;;;;64.60;20.13;;;;;;;6.65;99.42;103179.19;5093483;28;20036;-54
2023/02/05 00:34:54;;;;;;;78.80;22.00;;;;;;;6.62;99.94;103184.59;5093132;28;20048;-54
2023/02/05 00:37:21;;;;;;;76.80;20.50;;;;;;;6.56;100.00;103182.22;5093305;28;20119;-54
2023/02/05 00:39:49;;;;;;;68.45;20.23;;;;;;;6.57;100.00;103182.16;5092990;28;20060;-54
2023/02/05 00:42:15;;;;;;;86.65;19.58;;;;;;;6.60;100.00;103171.47;5093031;28;20131;-54
2023/02/05 00:44:42;;;;;;;70.13;19.23;;;;;;;6.72;100.00;103167.44;5093070;28;20546;-53
2023/02/05 00:47:09;;;;;;;60.92;19.73;;;;;;;6.60;100.00;103155.63;5093233;28;20050;-54
2023/02/05 00:49:35;;;;;;;57.22;20.15;;;;;;;6.42;100.00;103149.44;5096094;28;20052;-54
2023/02/05 00:52:03;;;;;;;70.03;21.42;;;;;;;6.46;100.00;103122.00;5097055;28;20054;-53
2023/02/05 00:54:30;;;;;;;75.90;21.60;;;;;;;6.47;100.00;103113.13;5096876;28;20040;-54
2023/02/05 00:56:57;;;;;;;65.82;19.30;;;;;;;6.33;100.00;103112.91;5096719;28;20056;-53
2023/02/05 00:59:24;;;;;;;80.00;20.85;;;;;;;6.45;100.00;103114.13;5096011;28;20098;-54
2023/02/05 01:01:50;;;;;;;68.18;19.23;;;;;;;6.41;100.00;103109.94;5094946;28;20063;-53
2023/02/05 01:04:19;;;;;;;73.50;19.45;;;;;;;6.28;100.00;103102.56;5096703;28;20599;-54
2023/02/05 01:06:46;;;;;;;58.40;18.90;;;;;;;6.46;100.00;103115.88;5096605;28;20051;-53
2023/02/05 01:09:13;;;;;;;63.40;19.08;;;;;;;6.43;100.00;103103.66;5096289;28;20040;-53
2023/02/05 01:11:39;;;;;;;68.57;19.13;;;;;;;6.52;100.00;103089.22;5096421;28;20052;-53
2023/02/05 01:14:06;;;;;;;71.20;19.55;;;;;;;6.56;100.00;103087.28;5096534;28;20481;-54
2023/02/05 01:16:33;;;;;;;66.00;18.88;;;;;;;6.57;100.00;103083.69;5096419;28;20044;-54
2023/02/05 01:18:59;;;;;;;66.93;18.58;;;;;;;6.46;100.00;103073.69;5096406;28;20040;-54
2023/02/05 01:21:28;;;;;;;57.15;18.33;;;;;;;6.50;100.00;103075.25;5075828;28;20048;-54
2023/02/05 01:23:56;;;;;;;57.80;17.02;;;;;;;6.61;100.00;103057.13;5075838;28;20041;-53
2023/02/05 01:26:23;;;;;;;61.72;17.67;;;;;;;6.62;100.00;103057.97;5076147;28;20040;-53
2023/02/05 01:28:49;;;;;;;60.08;17.95;;;;;;;6.63;100.00;103057.91;5076294;28;20068;-54
2023/02/05 01:31:16;;;;;;;72.72;18.15;;;;;;;6.58;100.00;103065.19;5076123;28;20045;-53
2023/02/05 01:33:43;;;;;;;56.58;18.85;;;;;;;6.62;100.00;103085.22;5075847;28;20036;-53
2023/02/05 01:36:09;;;;;;;57.17;18.90;;;;;;;6.60;100.00;103096.75;5075899;28;20102;-53
2023/02/05 01:38:36;;;;;;;56.88;18.33;;;;;;;6.45;100.00;103086.00;5075688;28;20077;-55
2023/02/05 01:41:03;;;;;;;58.55;17.77;;;;;;;6.58;100.00;103075.72;5075653;28;20468;-54
2023/02/05 01:43:29;;;;;;;47.30;17.42;;;;;;;6.66;100.00;103078.88;5075191;28;20132;-54
2023/02/05 01:46:19;;;;;;;65.47;17.98;;;;;;;6.53;100.00;103093.53;5074680;28;20136;-54
2023/02/05 01:48:49;;;;;;;54.85;17.45;;;;;;;6.44;100.00;103101.88;5074039;28;20631;-54
2023/02/05 01:51:16;;;;;;;57.30;16.98;;;;;;;6.37;100.00;103106.59;5094057;28;20101;-54
2023/02/05 01:53:45;;;;;;;50.13;16.10;;;;;;;6.41;100.00;103102.88;5095608;28;20123;-55
2023/02/05 01:56:18;;;;;;;56.45;16.13;;;;;;;6.51;100.00;103095.41;5095823;28;20113;-54
2023/02/05 01:58:52;;;;;;;64.55;16.33;;;;;;;6.52;100.00;103097.13;5094933;28;20549;-54
2023/02/05 02:01:19;;;;;;;60.22;15.13;;;;;;;6.49;100.00;103098.13;5094787;28;20052;-53
2023/02/05 02:03:48;;;;;;;57.58;16.98;;;;;;;6.45;100.00;103090.41;5095166;28;20043;-54
2023/02/05 02:06:15;;;;;;;59.15;16.05;;;;;;;6.41;100.00;103094.97;5095766;28;20071;-54
2023/02/05 02:08:42;;;;;;;51.75;16.00;;;;;;;6.32;100.00;103090.97;5095325;28;20436;-52
2023/02/05 02:11:12;;;;;;;63.75;17.45;;;;;;;6.20;100.00;103083.59;5095443;28;20545;-53
2023/02/05 02:13:39;;;;;;;53.85;15.50;;;;;;;6.26;100.00;103090.41;5095346;28;20093;-52
2023/02/05 02:16:07;;;;;;;56.30;16.15;;;;;;;6.37;100.00;103098.69;5095525;28;20048;-54
2023/02/05 02:18:37;;;;;;;47.50;15.93;;;;;;;6.45;100.00;103114.13;5095444;28;20477;-52
2023/02/05 02:24:22;;;;;;;58.00;16.73;;;;;;;6.32;100.00;103122.59;5111269;27;20746;-54
2023/02/05 02:27:10;;;;;;;42.15;14.98;;;;;;;6.28;100.00;103117.53;5111194;28;20056;-51
2023/02/05 02:29:45;;;;;;;48.45;15.07;;;;;;;6.41;100.00;103117.84;5111321;28;20048;-52
2023/02/05 02:32:37;;;;;;;52.20;15.77;;;;;;;6.45;100.00;103125.53;5111377;28;20075;-52
2023/02/05 02:35:14;;;;;;;49.90;16.65;;;;;;;6.50;100.00;103122.72;5111084;28;20059;-53
2023/02/05 02:37:51;;;;;;;49.72;15.65;;;;;;;6.48;100.00;103119.28;5111159;28;20048;-53
2023/02/05 02:40:25;;;;;;;49.53;15.32;;;;;;;6.58;100.00;103122.34;5110721;28;20374;-53
2023/02/05 02:43:14;;;;;;;48.08;14.75;;;;;;;6.60;100.00;103115.22;5110772;28;20040;-54
2023/02/05 02:45:47;;;;;;;51.60;16.27;;;;;;;6.67;100.00;103114.00;5109828;28;20048;-53
2023/02/05 02:48:18;;;;;;;50.35;15.00;;;;;;;6.66;100.00;103107.91;5111236;28;20153;-53
2023/02/05 02:50:49;;;;;;;55.20;15.45;;;;;;;6.61;100.00;103101.13;5110713;28;20133;-52
2023/02/05 02:53:19;;;;;;;48.43;15.63;;;;;;;6.61;100.00;103096.69;5111095;28;20071;-53
2023/02/05 02:55:48;;;;;;;57.72;16.55;;;;;;;6.63;100.00;103086.06;5110972;28;20282;-52
2023/02/05 02:58:36;;;;;;;49.42;14.55;;;;;;;6.63;100.00;103080.81;5110448;28;20126;-53
2023/02/05 03:01:07;;;;;;;52.40;15.68;;;;;;;6.57;100.00;103087.22;5110201;28;20131;-52
2023/02/05 03:03:41;;;;;;;47.38;15.25;;;;;;;6.57;100.00;103084.59;5110545;28;20075;-52
2023/02/05 03:06:11;;;;;;;49.67;14.60;;;;;;;6.58;100.00;103090.72;5110640;28;20089;-53
2023/02/05 03:08:58;;;;;;;50.35;15.50;;;;;;;6.65;100.00;103082.44;5110290;28;20036;-53
2023/02/05 03:11:26;;;;;;;49.95;15.13;;;;;;;6.60;100.00;103073.03;5110493;28;20435;-53
2023/02/05 03:13:55;;;;;;;51.60;15.13;;;;;;;6.52;100.00;103073.38;5110391;28;20089;-53
2023/02/05 03:16:25;;;;;;;48.40;14.73;;;;;;;6.49;100.00;103071.75;5110542;28;20055;-53
2023/02/05 03:18:54;;;;;;;46.65;14.77;;;;;;;6.54;100.00;103063.63;5110309;28;20066;-52
2023/02/05 03:21:30;;;;;;;48.05;13.85;;;;;;;6.53;100.00;103060.13;5109857;28;20134;-52
2023/02/05 03:23:57;;;;;;;46.17;15.30;;;;;;;6.54;100.00;103066.25;5110197;28;20050;-52
2023/02/05 03:26:30;;;;;;;50.10;14.65;;;;;;;6.52;100.00;103061.03;5110384;28;20051;-51
2023/02/05 03:29:12;;;;;;;42.05;13.45;;;;;;;6.51;100.00;103047.94;5110095;28;20493;-53
2023/02/05 03:31:54;;;;;;;39.60;14.07;;;;;;;6.53;100.00;103052.22;5110103;28;20072;-54
2023/02/05 03:34:37;;;;;;;43.08;14.65;;;;;;;6.51;100.00;103059.34;5100402;28;20055;-52
2023/02/05 03:37:35;;;;;;;51.20;14.68;;;;;;;6.48;100.00;103054.22;5096358;28;20382;-54
2023/02/05 03:40:26;;;;;;;46.42;15.60;;;;;;;6.57;100.00;103052.06;5096073;28;20072;-52
2023/02/05 03:43:18;;;;;;;45.83;15.40;;;;;;;6.50;100.00;103043.59;5095772;28;20093;-52
2023/02/05 03:46:02;;;;;;;55.22;15.30;;;;;;;6.44;100.00;103036.84;5096187;28;20513;-54
2023/02/05 03:48:51;;;;;;;44.42;16.05;;;;;;;6.43;100.00;103021.91;5087804;28;20405;-54
2023/02/05 03:51:45;;;;;;;56.65;16.15;;;;;;;6.39;100.00;103028.28;5094242;28;20040;-53
2023/02/05 03:54:38;;;;;;;50.70;14.77;;;;;;;6.38;100.00;103037.09;5096099;28;20094;-53
2023/02/05 03:57:19;;;;;;;59.28;16.65;;;;;;;6.46;100.00;103031.50;5111611;28;20052;-52
2023/02/05 03:59:49;;;;;;;49.47;16.50;;;;;;;6.44;100.00;103026.28;5094979;28;20130;-54
2023/02/05 04:02:17;;;;;;;56.83;16.55;;;;;;;6.46;100.00;103034.97;5095715;28;20452;-53
2023/02/05 04:04:45;;;;;;;54.40;17.00;;;;;;;6.50;100.00;103036.53;5095616;28;20044;-54
2023/02/05 04:07:13;;;;;;;54.83;17.13;;;;;;;6.42;100.00;103043.97;5096124;28;20071;-54
2023/02/05 04:09:40;;;;;;;56.50;18.75;;;;;;;6.52;100.00;103047.00;5095950;28;20048;-53
2023/02/05 04:12:09;;;;;;;48.67;17.15;;;;;;;6.53;100.00;103056.63;5095436;28;20454;-52
2023/02/05 04:14:37;;;;;;;58.10;19.77;;;;;;;6.51;100.00;103047.94;5095717;28;20079;-53
2023/02/05 04:17:04;;;;;;;59.08;20.30;;;;;;;6.52;100.00;103047.00;5095689;28;20044;-52
2023/02/05 04:19:30;;;;;;;77.85;20.15;;;;;;;6.45;100.00;103045.59;5095455;28;20048;-50
2023/02/05 04:21:59;;;;;;;53.78;18.70;;;;;;;6.53;100.00;103046.06;5095179;28;20052;-52
2023/02/05 04:24:28;;;;;;;66.65;19.25;;;;;;;6.45;100.00;103059.63;5095627;28;20055;-52
2023/02/05 04:26:55;;;;;;;66.07;20.75;;;;;;;6.44;100.00;103063.19;5095469;28;20043;-52
2023/02/05 04:29:23;;;;;;;65.03;21.13;;;;;;;6.50;100.00;103069.97;5095136;28;20051;-52
2023/02/05 04:31:51;;;;;;;72.38;20.13;;;;;;;6.57;100.00;103070.53;5095239;28;20131;-49
2023/02/05 04:34:18;;;;;;;74.30;22.75;;;;;;;6.63;100.00;103062.34;5095336;28;20056;-52
2023/02/05 04:36:46;;;;;;;81.72;26.05;;;;;;;6.66;100.00;103060.41;5095205;28;20048;-52
2023/02/05 04:39:13;;;;;;;89.28;28.05;;;;;;;6.67;100.00;103070.03;5095114;28;20472;-52
2023/02/05 04:41:40;;;;;;;90.90;29.48;;;;;;;6.67;100.00;103064.75;5095164;28;20048;-53
2023/02/05 04:44:07;;;;;;;95.35;30.02;;;;;;;6.77;100.00;103069.59;5094913;28;20425;-52
2023/02/05 04:46:33;;;;;;;95.75;29.13;;;;;;;6.83;100.00;103064.88;5093708;28;20446;-52
2023/02/05 04:49:00;;;;;;;100.88;30.80;;;;;;;6.73;100.00;103066.25;5095011;28;20082;-52
2023/02/05 04:51:27;;;;;;;93.45;28.70;;;;;;;6.70;100.00;103064.63;5093937;28;20554;-53
2023/02/05 04:53:53;;;;;;;81.80;27.95;;;;;;;6.74;100.00;103065.31;5095031;28;20048;-52
2023/02/05 04:56:20;;;;;;;80.63;27.98;;;;;;;6.74;100.00;103060.03;5095061;28;20069;-52
2023/02/05 04:58:46;;;;;;;78.70;25.90;;;;;;;6.73;100.00;103053.94;5094422;28;20057;-54
2023/02/05 05:01:16;;;;;;;71.85;25.38;;;;;;;6.80;100.00;103053.63;5094185;28;20072;-54
2023/02/05 05:03:43;;;;;;;69.32;24.65;;;;;;;6.85;100.00;103046.34;5094730;28;20048;-51
2023/02/05 05:06:11;;;;;;;73.90;23.67;;;;;;;6.76;100.00;103052.06;5094883;28;20068;-53
2023/02/05 05:08:38;;;;;;;64.43;22.55;;;;;;;6.75;100.00;103052.97;5094716;28;20051;-53
2023/02/05 05:11:07;;;;;;;65.45;23.25;;;;;;;6.83;100.00;103046.41;5094609;28;20452;-52
2023/02/05 05:13:35;;;;;;;69.78;22.13;;;;;;;6.87;100.00;103034.78;5094261;28;20036;-52
2023/02/05 05:16:03;;;;;;;57.72;21.50;;;;;;;6.95;100.00;103041.47;5094616;28;20528;-53
2023/02/05 05:18:30;;;;;;;60.65;20.45;;;;;;;6.95;100.00;103037.06;5094557;28;20074;-53
2023/02/05 05:20:57;;;;;;;51.28;20.60;;;;;;;7.04;100.00;103041.03;5094338;28;20048;-53
2023/02/05 05:23:24;;;;;;;56.92;20.23;;;;;;;7.01;100.00;103036.75;5093856;28;20052;-52
2023/02/05 05:25:51;;;;;;;64.15;20.30;;;;;;;7.12;100.00;103041.53;5094255;28;20040;-54
2023/02/05 05:28:18;;;;;;;61.70;21.48;;;;;;;6.97;100.00;103043.13;5094263;28;20044;-52
2023/02/05 05:30:46;;;;;;;69.88;22.83;;;;;;;6.82;100.00;103041.22;5094176;28;20440;-53
2023/02/05 05:33:13;;;;;;;74.72;24.63;;;;;;;6.84;100.00;103039.34;5094323;28;20170;-53
2023/02/05 05:35:40;;;;;;;74.80;25.38;;;;;;;6.86;100.00;103045.44;5094156;28;20047;-51
2023/02/05 05:38:07;;;;;;;78.07;26.08;;;;;;;6.92;100.00;103037.22;5094304;28;20098;-52
2023/02/05 05:43:51;;;;;;;87.75;29.48;;;;;;;6.77;100.00;103040.56;5093604;28;20054;-50
2023/02/05 05:46:07;;;;;;;97.93;30.15;;;;;;;6.60;100.00;103036.09;5093718;28;20058;-53
2023/02/05 05:48:34;;;;;;;94.05;33.67;;;;;;;6.68;100.00;103037.47;5091699;28;20051;-52
2023/02/05 05:51:01;;;;;;;97.32;34.08;;;;;;;6.75;100.00;103031.88;5088142;28;20500;-52
2023/02/05 05:53:27;;;;;;;90.53;34.15;;;;;;;6.73;100.00;103030.19;5092577;28;20101;-52
2023/02/05 05:55:54;;;;;;;98.75;33.78;;;;;;;6.67;100.00;103029.59;5093073;28;20048;-53
2023/02/05 05:58:21;;;;;;;99.57;34.13;;;;;;;6.76;100.00;103028.31;5093216;28;20043;-53
2023/02/05 06:00:48;;;;;;;97.60;35.83;;;;;;;6.76;100.00;103033.59;5092843;28;20050;-53
2023/02/05 06:03:15;;;;;;;101.55;35.88;;;;;;;6.82;100.00;103038.56;5093527;28;20123;-55
2023/02/05 06:05:41;;;;;;;100.32;36.30;;;;;;;6.89;100.00;103032.94;5094011;28;20054;-54
2023/02/05 06:08:08;;;;;;;112.78;37.15;;;;;;;6.79;100.00;103039.59;5093769;28;20051;-54
2023/02/05 06:10:35;;;;;;;100.85;36.13;;;;;;;6.71;100.00;103032.03;5093431;28;20131;-54
2023/02/05 06:13:01;;;;;;;105.95;35.72;;;;;;;6.71;100.00;103033.81;5093195;28;20429;-54
2023/02/05 06:15:28;;;;;;;91.07;33.90;;;;;;;6.71;100.00;103032.03;5093580;28;20101;-51
2023/02/05 06:17:55;;;;;;;89.60;36.10;;;;;;;6.69;100.00;103027.75;5093731;28;20056;-53
2023/02/05 06:20:22;;;;;;;98.20;36.50;;;;;;;6.81;100.00;103028.97;5093475;28;20093;-53
2023/02/05 06:22:48;;;;;;;95.85;34.55;;;;;;;6.71;100.00;103031.16;5093018;28;20104;-51
2023/02/05 06:25:15;;;;;;;91.68;34.25;;;;;;;6.79;100.00;103020.28;5093492;28;20105;-53
2023/02/05 06:27:42;;;;;;;99.82;35.53;;;;;;;6.68;100.00;103026.06;5093523;28;20148;-53
2023/02/05 06:30:10;;;;;;;85.68;33.83;;;;;;;6.79;100.00;103020.28;5093355;28;20047;-54
2023/02/05 06:32:37;;;;;;;83.63;32.15;;;;;;;6.70;100.00;103024.19;5093186;28;20047;-53
2023/02/05 06:35:04;;;;;;;81.05;32.08;;;;;;;6.60;100.00;103025.56;5093455;28;20064;-54
2023/02/05 06:37:31;;;;;;;82.55;31.65;;;;;;;6.60;100.00;103029.03;5093635;28;20051;-54
2023/02/05 06:40:14;;;;;;;86.93;32.70;;;;;;;6.66;100.00;103027.91;5093457;28;20040;-52
2023/02/05 06:42:41;;;;;;;76.30;30.75;;;;;;;6.65;100.00;103032.31;5093218;28;20044;-52
2023/02/05 06:45:08;;;;;;;80.47;29.67;;;;;;;6.65;100.00;103021.75;5092697;28;20489;-53
2023/02/05 06:47:36;;;;;;;84.32;32.30;;;;;;;6.59;100.00;103013.31;5092366;28;20390;-53
2023/02/05 06:50:04;;;;;;;89.95;32.67;;;;;;;6.66;100.00;103006.81;5092024;28;20048;-53
2023/02/05 06:52:31;;;;;;;85.30;31.98;;;;;;;6.57;100.00;103005.47;5093411;28;20087;-53
2023/02/05 06:54:58;;;;;;;81.47;29.58;;;;;;;6.59;100.00;103008.88;5093245;28;20117;-52
2023/02/05 06:57:24;;;;;;;79.20;29.50;;;;;;;6.65;100.00;103016.50;5092982;28;20040;-53
2023/02/05 06:59:51;;;;;;;76.72;29.95;;;;;;;6.59;100.00;103010.66;5092303;28;20040;-53
2023/02/05 07:02:19;;;;;;;74.97;28.13;;;;;;;6.72;100.00;103017.06;5093020;28;20052;-53
2023/02/05 07:04:45;;;;;;;66.07;26.98;;;;;;;6.69;100.00;103004.00;5092924;28;20044;-53
2023/02/05 07:07:12;;;;;;;66.07;25.00;;;;;;;6.61;100.00;103011.44;5085200;28;20044;-53
2023/02/05 07:09:39;;;;;;;67.05;25.20;;;;;;;6.56;100.00;103013.44;5062487;28;20102;-51
2023/02/05 07:12:06;;;;;;;62.05;24.95;;;;;;;6.70;100.00;103017.13;5076135;28;20040;-53
2023/02/05 07:14:37;;;;;;;65.40;25.42;;;;;;;6.67;100.00;103009.34;5076334;28;20040;-52
2023/02/05 07:17:06;;;;;;;62.95;23.63;;;;;;;6.70;100.00;103011.00;5076499;28;20555;-53
2023/02/05 07:19:34;;;;;;;61.47;24.52;;;;;;;6.60;100.00;103005.28;5081339;28;20051;-52
2023/02/05 07:22:00;;;;;;;65.72;24.27;;;;;;;6.59;100.00;103003.59;5096153;28;20052;-52
2023/02/05 07:24:27;;;;;;;58.45;24.25;;;;;;;6.54;100.00;103005.59;5096636;28;20051;-51
2023/02/05 07:26:54;;;;;;;54.38;22.88;;;;;;;6.60;100.00;103015.00;5096428;28;20052;-53
2023/02/05 07:29:20;;;;;;;50.60;22.38;;;;;;;6.67;100.00;103011.16;5096561;28;20071;-54
2023/02/05 07:31:49;;;;;;;56.13;22.42;;;;;;;6.62;100.00;103010.50;5096468;28;20047;-52
2023/02/05 07:34:16;;;;;;;54.53;22.55;;;;;;;6.70;100.00;103008.38;5096348;28;20443;-52
2023/02/05 07:36:43;;;;;;;54.10;22.80;;;;;;;6.63;100.00;103004.31;5096302;28;20055;-53
2023/02/05 07:39:10;;;;;;;51.75;21.25;;;;;;;6.65;100.00;103008.56;5095359;28;20048;-53
2023/02/05 07:41:37;;;;;;;52.90;22.35;;;;;;;6.54;100.00;103014.34;5096180;28;20048;-52
2023/02/05 07:44:04;;;;;;;51.03;22.80;;;;;;;6.52;100.00;103008.31;5096077;28;20074;-53
2023/02/05 07:46:31;;;;;;;52.17;22.02;;;;;;;6.68;100.00;103010.22;5096218;28;20044;-51
2023/02/05 07:48:57;;;;;;;49.28;21.05;;;;;;;6.67;100.00;103008.50;5095073;28;20130;-53
2023/02/05 07:51:24;;;;;;;50.35;20.67;;;;;;;6.61;100.00;103017.56;5075983;28;20048;-53
2023/02/05 07:53:52;;;;;;;47.67;21.23;;;;;;;6.52;100.00;103007.47;5074668;28;20067;-53
2023/02/05 07:56:20;;;;;;;50.67;22.35;;;;;;;6.59;100.00;103003.59;5074724;28;20048;-53
2023/02/05 07:58:47;;;;;;;54.42;22.63;;;;;;;6.59;100.00;103003.59;5075004;28;20429;-54
2023/02/05 08:01:13;;;;;;;52.42;21.95;;;;;;;6.63;100.00;103009.59;5084104;28;20036;-53
2023/02/05 08:03:40;;;;;;;54.80;22.88;;;;;;;6.62;100.00;103000.84;5095757;28;20040;-53
2023/02/05 08:06:10;;;;;;;44.40;20.27;;;;;;;6.45;100.00;103003.41;5096080;28;20093;-52
2023/02/05 08:08:37;;;;;;;53.15;22.17;;;;;;;6.43;100.00;103000.84;5095928;28;20485;-53
2023/02/05 08:11:05;;;;;;;48.38;22.05;;;;;;;6.58;100.00;103008.94;5095642;28;20097;-53
2023/02/05 08:13:32;;;;;;;46.17;21.23;;;;;;;6.32;100.00;103000.47;5095563;28;20097;-53
2023/02/05 08:16:03;;;;;;;43.40;21.02;;;;;;;6.28;100.00;103009.47;5095766;28;20054;-56
2023/02/05 08:18:30;;;;;;;51.35;21.33;;;;;;;6.25;100.00;103015.72;5095821;28;20560;-53
2023/02/05 08:20:57;;;;;;;48.17;22.40;;;;;;;6.23;100.00;103014.09;5095515;28;20044;-53
2023/02/05 08:23:23;;;;;;;47.92;21.30;;;;;;;6.34;100.00;103007.38;5094920;28;20390;-53
2023/02/05 08:25:55;;;;;;;41.03;19.73;;;;;;;6.31;100.00;103022.47;5095625;28;20044;-53
2023/02/05 08:28:23;;;;;;;45.83;18.98;;;;;;;6.33;100.00;103010.97;5095534;28;20054;-53
2023/02/05 08:30:50;;;;;;;38.00;18.15;;;;;;;6.37;100.00;103016.06;5095214;28;20098;-53
2023/02/05 08:33:17;;;;;;;39.00;18.67;;;;;;;6.36;100.00;103017.00;5095301;28;20413;-51
2023/02/05 08:35:44;;;;;;;35.40;17.77;;;;;;;6.30;100.00;103018.16;5095164;28;20123;-53
2023/02/05 08:38:11;;;;;;;34.97;16.45;;;;;;;6.20;100.00;103027.41;5095295;28;20501;-53
2023/02/05 08:40:38;;;;;;;31.20;13.25;;;;;;;6.05;100.00;103037.69;5095086;28;20044;-52
2023/02/05 08:43:06;;;;;;;17.98;8.07;;;;;;;5.93;100.00;103046.97;5095111;28;20044;-52
2023/02/05 08:45:33;;;;;;;12.77;5.45;;;;;;;5.88;100.00;103035.78;5093442;28;20068;-52
2023/02/05 08:48:00;;;;;;;13.82;4.68;;;;;;;5.93;100.00;103046.09;5094980;28;20036;-50
2023/02/05 08:50:27;;;;;;;14.23;4.70;;;;;;;5.87;100.00;103044.59;5095013;28;20048;-51
2023/02/05 08:52:53;;;;;;;13.10;3.60;;;;;;;5.80;100.00;103048.41;5094811;28;20048;-52
2023/02/05 08:55:20;;;;;;;7.45;3.00;;;;;;;5.81;100.00;103047.50;5094908;28;20052;-50
2023/02/05 08:57:46;;;;;;;8.90;2.85;;;;;;;5.81;100.00;103046.66;5094883;28;20047;-52
2023/02/05 09:00:14;;;;;;;9.15;2.50;;;;;;;5.79;100.00;103051.16;5093726;28;20188;-52
2023/02/05 09:02:42;;;;;;;11.25;2.70;;;;;;;5.64;100.00;103039.47;5094687;28;20512;-53
2023/02/05 09:05:09;;;;;;;8.63;2.20;;;;;;;5.60;100.00;103049.28;5094603;28;20048;-50
2023/02/05 09:07:37;;;;;;;9.30;2.45;;;;;;;5.63;100.00;103043.03;5094451;28;20056;-53
2023/02/05 09:10:06;;;;;;;12.40;2.08;;;;;;;5.68;100.00;103062.13;5094826;28;20117;-51
2023/02/05 09:12:33;;;;;;;6.03;1.88;;;;;;;5.62;100.00;103055.38;5094437;28;20509;-53
2023/02/05 09:15:00;;;;;;;9.10;2.10;;;;;;;5.64;100.00;103060.53;5094408;28;20493;-53
2023/02/05 09:17:27;;;;;;;8.35;1.52;;;;;;;5.66;100.00;103061.34;5094142;28;20382;-52
2023/02/05 09:19:53;;;;;;;11.80;1.50;;;;;;;5.64;100.00;103064.03;5094663;28;20554;-53
2023/02/05 09:22:20;;;;;;;6.45;1.90;;;;;;;5.62;100.00;103059.75;5093712;28;20052;-53
2023/02/05 09:24:47;;;;;;;10.05;1.40;;;;;;;5.68;100.00;103064.78;5094304;28;20134;-53
2023/02/05 09:27:14;;;;;;;5.35;1.52;;;;;;;5.70;100.00;103071.69;5094351;28;20051;-53
2023/02/05 09:29:40;;;;;;;7.57;1.50;;;;;;;5.71;100.00;103064.63;5094215;28;20067;-53
2023/02/05 09:32:07;;;;;;;9.40;1.50;;;;;;;5.69;100.00;103062.03;5093666;28;20040;-52
2023/02/05 09:34:34;;;;;;;8.63;1.90;;;;;;;5.71;100.00;103077.78;5094288;28;20040;-52
2023/02/05 09:37:01;;;;;;;6.88;2.00;;;;;;;5.75;100.00;103064.44;5093872;28;20051;-53
2023/02/05 09:39:29;;;;;;;8.02;2.20;;;;;;;5.72;100.00;103080.38;5094152;28;20047;-52
2023/02/05 09:42:30;;;;;;;10.27;2.15;;;;;;;5.76;100.00;103081.09;5093039;28;20036;-52
2023/02/05 09:45:36;;;;;;;6.28;2.20;;;;;;;5.79;100.00;103078.34;5093710;28;20047;-53
2023/02/05 09:50:56;;;;;;;8.50;1.73;;;;;;;5.72;100.00;103077.72;5061212;28;20395;-52
2023/02/05 09:53:28;;;;;;;12.60;2.65;;;;;;;5.74;100.00;103089.06;5049662;28;20053;-53
2023/02/05 09:55:56;;;;;;;14.15;2.08;;;;;;;5.69;100.00;103077.84;5049521;28;20049;-53
2023/02/05 09:58:29;;;;;;;10.30;1.73;;;;;;;5.71;100.00;103094.47;5049888;28;20045;-53
2023/02/05 10:01:02;;;;;;;11.55;1.83;;;;;;;5.67;100.00;103097.28;5049774;28;20057;-52
2023/02/05 10:03:43;;;;;;;16.52;2.03;;;;;;;5.66;100.00;103095.59;5050180;28;20411;-52
2023/02/05 10:09:31;;;;;;;12.32;1.98;;;;;;;5.75;100.00;103101.31;5070728;28;20376;-52
2023/02/05 10:12:10;;;;;;;13.60;1.80;;;;;;;5.76;100.00;103089.00;5070657;28;20080;-54
2023/02/05 10:14:56;;;;;;;15.93;2.53;;;;;;;5.79;100.00;103086.25;5070430;28;20045;-53
2023/02/05 10:20:55;;;;;;;16.70;2.20;;;;;;;5.90;100.00;103089.25;5120708;27;20516;-52
2023/02/05 10:23:53;;;;;;;13.35;1.95;;;;;;;6.04;100.00;103095.72;5111107;28;20127;-52
2023/02/05 10:26:26;;;;;;;15.50;1.70;;;;;;;5.91;100.00;103072.53;5110982;28;20493;-53
2023/02/05 10:29:20;;;;;;;11.30;1.90;;;;;;;5.86;100.00;103095.59;5111108;28;20466;-50
2023/02/05 10:34:54;;;;;;;15.18;2.80;;;;;;;5.93;100.00;103073.34;5131607;27;20119;-54
2023/02/05 10:37:34;;;;;;;12.02;2.20;;;;;;;5.88;100.00;103067.41;5110824;28;20055;-54
2023/02/05 10:40:09;;;;;;;12.18;1.85;;;;;;;5.90;100.00;103072.59;5111085;28;20044;-53
2023/02/05 10:42:44;;;;;;;8.85;1.48;;;;;;;5.94;100.00;103064.50;5111299;28;20044;-54
2023/02/05 10:47:58;;;;;;;10.80;2.30;;;;;;;5.97;100.00;103066.19;5111230;27;20354;-54
2023/02/05 10:50:49;;;;;;;13.63;1.98;;;;;;;6.06;100.00;103054.38;5101627;28;20043;-55
2023/02/05 10:53:20;;;;;;;;;;;;;;;6.08;100.00;103057.81;5058714;28;20513;-52
2023/02/05 10:55:47;;;;;;;13.10;2.10;;;;;;;5.96;100.00;103057.41;5105527;28;19927;-51
2023/02/05 10:58:46;;;;;;;15.70;2.45;;;;;;;6.03;100.00;103063.25;5124598;28;20039;-52
2023/02/05 11:01:20;;;;;;;155.55;51.28;;;;;;;6.10;100.00;103061.22;5127281;27;20131;-52
2023/02/05 11:03:53;;;;;;;17.23;2.47;;;;;;;6.07;100.00;103059.56;5111720;28;20065;-52
2023/02/05 11:06:23;;;;;;;18.52;2.05;;;;;;;5.96;100.00;103073.22;5108282;27;20494;-53
2023/02/05 11:08:50;;;;;;;19.20;2.10;;;;;;;5.94;100.00;103061.84;5104089;28;20047;-52
2023/02/05 11:11:27;;;;;;;18.42;2.65;;;;;;;6.01;100.00;103051.09;5108658;28;20051;-52
2023/02/05 11:13:58;;;;;;;18.33;2.63;;;;;;;6.06;100.00;103054.38;5111844;27;20056;-52
2023/02/05 11:16:43;;;;;;;13.13;2.25;;;;;;;6.08;100.00;103058.66;5111999;28;20043;-52
2023/02/05 11:19:21;;;;;;;15.68;2.33;;;;;;;6.05;100.00;103063.19;5092633;28;20052;-51
2023/02/05 11:21:57;;;;;;;19.58;2.28;;;;;;;6.11;100.00;103074.34;5096577;28;20040;-53
2023/02/05 11:24:35;;;;;;;13.23;2.03;;;;;;;6.03;100.00;103065.06;5078494;28;20086;-53
2023/02/05 11:27:23;;;;;;;18.77;2.80;;;;;;;6.03;100.00;103060.63;5091972;28;20048;-54
2023/02/05 11:29:50;;;;;;;17.15;2.30;;;;;;;5.91;100.00;103064.63;5082681;28;20051;-52
2023/02/05 11:32:36;;;;;;;21.17;2.55;;;;;;;5.94;100.00;103069.75;5104820;28;20054;-53
2023/02/05 11:35:24;;;;;;;20.98;2.60;;;;;;;5.96;100.00;103067.09;5092117;28;20069;-54
2023/02/05 11:38:14;;;;;;;29.48;2.90;;;;;;;5.95;100.00;103070.63;5097970;28;20039;-53
2023/02/05 11:40:50;;;;;;;16.70;2.63;;;;;;;5.87;100.00;103075.38;5097201;27;20496;-53
2023/02/05 11:43:25;;;;;;;23.20;3.28;;;;;;;5.88;100.00;103063.91;5120400;28;20042;-53
2023/02/05 11:45:55;;;;;;;14.25;2.25;;;;;;;5.78;100.00;103063.44;5095324;27;20054;-53
2023/02/05 11:48:40;;;;;;;20.67;2.58;;;;;;;5.82;100.00;103064.16;5104507;27;20040;-52